createdAt,value
2018-07-02T00:02:26.453Z,100557.68
2018-07-02T00:04:54.593Z,100553.44
2018-07-02T00:07:23.814Z,100551.88
2018-07-02T00:09:52.402Z,100550.45
2018-07-02T00:12:21.399Z,100556.97
2018-07-02T00:14:50.373Z,100556.34
2018-07-02T00:17:18.666Z,100549.43
2018-07-02T00:19:46.934Z,100544.54
2018-07-02T00:22:15.428Z,100534.92
2018-07-02T00:24:43.490Z,100534.34
2018-07-02T00:27:11.694Z,100543.58
2018-07-02T00:29:40.000Z,100529.17
2018-07-02T00:32:08.371Z,100544.70
2018-07-02T00:34:36.499Z,100541.14
2018-07-02T00:37:04.580Z,100549.87
2018-07-02T00:39:32.639Z,100547.72
2018-07-02T00:42:00.723Z,100548.63
2018-07-02T00:44:28.812Z,100544.95
2018-07-02T00:46:56.887Z,100548.63
2018-07-02T00:49:24.965Z,100549.28
2018-07-02T00:51:53.424Z,100549.61
2018-07-02T00:54:21.492Z,100547.79
2018-07-02T00:56:49.579Z,100548.84
2018-07-02T00:59:17.650Z,100549.47
2018-07-02T01:01:45.725Z,100541.22
2018-07-02T01:04:13.825Z,100546.76
2018-07-02T01:06:41.920Z,100545.06
2018-07-02T01:09:10.408Z,100541.05
2018-07-02T01:11:38.484Z,100544.65
2018-07-02T01:14:07.027Z,100548.89
2018-07-02T01:16:35.099Z,100546.28
2018-07-02T01:19:03.187Z,100550.52
2018-07-02T01:21:31.283Z,100546.95
2018-07-02T01:23:59.369Z,100548.49
2018-07-02T01:26:27.455Z,100550.77
2018-07-02T01:28:55.544Z,100544.71
2018-07-02T01:31:23.634Z,100544.77
2018-07-02T01:33:51.871Z,100548.89
2018-07-02T01:36:19.958Z,100543.38
2018-07-02T01:38:48.022Z,100543.62
2018-07-02T01:41:16.126Z,100544.15
2018-07-02T01:43:44.272Z,100547.69
2018-07-02T01:46:12.391Z,100555.42
2018-07-02T01:48:40.454Z,100552.37
2018-07-02T01:51:08.542Z,100545.16
2018-07-02T01:53:36.610Z,100550.38
2018-07-02T01:56:04.771Z,100545.66
2018-07-02T01:58:32.860Z,100543.31
2018-07-02T02:01:00.963Z,100543.69
2018-07-02T02:03:29.059Z,100545.84
2018-07-02T02:05:57.136Z,100544.47
2018-07-02T02:08:25.272Z,100547.35
2018-07-02T02:10:53.472Z,100547.88
2018-07-02T02:13:21.554Z,100557.67
2018-07-02T02:15:49.639Z,100556.19
2018-07-02T02:18:17.737Z,100554.70
2018-07-02T02:20:45.909Z,100549.12
2018-07-02T02:23:13.983Z,100565.09
2018-07-02T02:25:42.063Z,100560.72
2018-07-02T02:28:10.197Z,100564.60
2018-07-02T02:30:38.290Z,100565.54
2018-07-02T02:33:06.372Z,100564.25
2018-07-02T02:35:34.459Z,100564.78
2018-07-02T02:38:02.567Z,100560.58
2018-07-02T02:40:30.687Z,100559.44
2018-07-02T02:42:58.767Z,100553.02
2018-07-02T02:45:26.831Z,100551.70
2018-07-02T02:47:54.915Z,100547.66
2018-07-02T02:50:23.001Z,100549.77
2018-07-02T02:52:51.085Z,100555.72
2018-07-02T02:55:19.162Z,100558.19
2018-07-02T02:57:47.235Z,100557.93
2018-07-02T03:00:15.409Z,100562.59
2018-07-02T03:02:43.494Z,100565.20
2018-07-02T03:05:11.603Z,100563.95
2018-07-02T03:07:39.771Z,100559.02
2018-07-02T03:10:07.927Z,100558.19
2018-07-02T03:12:36.045Z,100553.83
2018-07-02T03:15:04.191Z,100555.38
2018-07-02T03:17:32.262Z,100563.11
2018-07-02T03:20:00.351Z,100560.86
2018-07-02T03:22:28.414Z,100554.80
2018-07-02T03:24:56.512Z,100554.47
2018-07-02T03:27:24.702Z,100557.41
2018-07-02T03:29:52.799Z,100560.31
2018-07-02T03:32:20.898Z,100561.55
2018-07-02T03:34:48.967Z,100563.05
2018-07-02T03:37:17.258Z,100562.74
2018-07-02T03:39:45.348Z,100560.95
2018-07-02T03:42:13.503Z,100560.28
2018-07-02T03:44:41.595Z,100564.09
2018-07-02T03:47:09.682Z,100565.44
2018-07-02T03:49:37.803Z,100572.59
2018-07-02T03:52:05.923Z,100573.19
2018-07-02T03:54:33.947Z,100569.53
2018-07-02T03:57:02.182Z,100570.26
2018-07-02T03:59:30.346Z,100566.21
2018-07-02T04:01:58.448Z,100561.12
2018-07-02T04:04:26.603Z,100568.03
2018-07-02T04:06:54.949Z,100568.67
2018-07-02T04:09:23.039Z,100565.25
2018-07-02T04:11:51.218Z,100570.96
2018-07-02T04:14:19.307Z,100572.39
2018-07-02T04:16:47.392Z,100579.50
2018-07-02T04:19:15.480Z,100579.73
2018-07-02T04:21:44.255Z,100574.02
2018-07-02T04:24:12.352Z,100568.70
2018-07-02T04:26:41.730Z,100573.55
2018-07-02T04:29:10.122Z,100575.84
2018-07-02T04:31:38.246Z,100581.20
2018-07-02T04:34:06.360Z,100575.73
2018-07-02T04:36:34.503Z,100571.31
2018-07-02T04:39:02.579Z,100566.67
2018-07-02T04:41:30.648Z,100570.09
2018-07-02T04:43:58.706Z,100571.31
2018-07-02T04:46:26.806Z,100573.63
2018-07-02T04:48:54.879Z,100577.27
2018-07-02T04:51:23.052Z,100583.02
2018-07-02T04:53:51.140Z,100581.42
2018-07-02T04:56:19.288Z,100584.12
2018-07-02T04:58:47.391Z,100582.92
2018-07-02T05:01:15.468Z,100589.32
2018-07-02T05:03:43.637Z,100586.98
2018-07-02T05:06:11.711Z,100592.50
2018-07-02T05:08:39.773Z,100583.97
2018-07-02T05:11:07.866Z,100585.11
2018-07-02T05:13:35.948Z,100581.23
2018-07-02T05:16:04.262Z,100585.12
2018-07-02T05:18:32.392Z,100593.72
2018-07-02T05:21:00.482Z,100585.13
2018-07-02T05:23:28.591Z,100589.07
2018-07-02T05:25:56.656Z,100588.41
2018-07-02T05:28:24.755Z,100586.19
2018-07-02T05:30:52.859Z,100585.11
2018-07-02T05:33:21.065Z,100583.02
2018-07-02T05:35:49.128Z,100586.17
2018-07-02T05:38:17.283Z,100586.35
2018-07-02T05:40:45.359Z,100582.34
2018-07-02T05:43:13.484Z,100571.03
2018-07-02T05:45:41.619Z,100574.45
2018-07-02T05:48:09.837Z,100578.13
2018-07-02T05:50:37.911Z,100579.64
2018-07-02T05:53:05.991Z,100576.52
2018-07-02T05:55:34.060Z,100578.50
2018-07-02T05:58:02.222Z,100578.31
2018-07-02T06:00:30.349Z,100568.53
2018-07-02T06:02:58.506Z,100577.18
2018-07-02T06:05:26.560Z,100570.84
2018-07-02T06:07:55.057Z,100574.69
2018-07-02T06:10:23.101Z,100570.43
2018-07-02T06:12:51.174Z,100577.23
2018-07-02T06:15:19.278Z,100574.09
2018-07-02T06:17:47.350Z,100577.77
2018-07-02T06:20:15.445Z,100576.94
2018-07-02T06:22:43.561Z,100583.06
2018-07-02T06:25:11.640Z,100573.02
2018-07-02T06:27:39.710Z,100575.45
2018-07-02T06:30:07.931Z,100570.72
2018-07-02T06:32:35.995Z,100575.45
2018-07-02T06:35:04.112Z,100575.35
2018-07-02T06:37:32.223Z,100586.97
2018-07-02T06:40:00.303Z,100589.11
2018-07-02T06:42:28.381Z,100591.50
2018-07-02T06:44:56.577Z,100595.98
2018-07-02T06:47:24.655Z,100593.00
2018-07-02T06:49:52.738Z,100588.02
2018-07-02T06:52:20.836Z,100592.39
2018-07-02T06:54:48.923Z,100593.70
2018-07-02T06:57:17.082Z,100589.06
2018-07-02T06:59:45.147Z,100597.22
2018-07-02T07:02:13.207Z,100602.73
2018-07-02T07:04:41.312Z,100601.45
2018-07-02T07:07:09.406Z,100598.62
2018-07-02T07:09:37.543Z,100598.73
2018-07-02T07:12:05.763Z,100598.89
2018-07-02T07:14:33.931Z,100598.84
2018-07-02T07:17:02.024Z,100597.86
2018-07-02T07:19:30.107Z,100593.42
2018-07-02T07:21:58.190Z,100589.00
2018-07-02T07:24:26.301Z,100592.14
2018-07-02T07:26:54.400Z,100599.29
2018-07-02T07:29:22.475Z,100598.62
2018-07-02T07:31:50.609Z,100596.14
2018-07-02T07:34:18.686Z,100591.55
2018-07-02T07:36:46.940Z,100590.55
2018-07-02T07:39:15.039Z,100596.80
2018-07-02T07:41:43.216Z,100598.73
2018-07-02T07:44:11.286Z,100590.03
2018-07-02T07:46:39.364Z,100585.73
2018-07-02T07:49:07.440Z,100587.00
2018-07-02T07:51:35.526Z,100596.93
2018-07-02T07:54:03.675Z,100593.93
2018-07-02T07:56:31.761Z,100578.11
2018-07-02T07:58:59.841Z,100580.34
2018-07-02T08:01:27.928Z,100583.59
2018-07-02T08:03:56.020Z,100586.86
2018-07-02T08:06:24.141Z,100586.34
2018-07-02T08:08:52.252Z,100580.39
2018-07-02T08:11:20.398Z,100585.00
2018-07-02T08:13:48.495Z,100582.36
2018-07-02T08:16:16.605Z,100579.10
2018-07-02T08:18:44.719Z,100573.63
2018-07-02T08:21:12.916Z,100570.95
2018-07-02T08:23:40.987Z,100560.31
2018-07-02T08:26:09.067Z,100561.70
2018-07-02T08:28:37.247Z,100555.41
2018-07-02T08:31:05.347Z,100556.78
2018-07-02T08:33:33.483Z,100559.49
2018-07-02T08:36:01.561Z,100561.45
2018-07-02T08:38:29.642Z,100560.89
2018-07-02T08:40:57.988Z,100562.55
2018-07-02T08:43:26.166Z,100563.08
2018-07-02T08:45:54.227Z,100560.64
2018-07-02T08:48:22.327Z,100558.20
2018-07-02T08:50:50.447Z,100560.38
2018-07-02T08:53:18.571Z,100555.44
2018-07-02T08:55:46.679Z,100556.55
2018-07-02T08:58:14.833Z,100548.92
2018-07-02T09:00:42.917Z,100549.73
2018-07-02T09:03:11.009Z,100553.81
2018-07-02T09:05:39.081Z,100544.26
2018-07-02T09:08:07.216Z,100545.89
2018-07-02T09:10:35.277Z,100549.46
2018-07-02T09:13:03.360Z,100549.70
2018-07-02T09:15:31.459Z,100553.23
2018-07-02T09:17:59.535Z,100555.12
2018-07-02T09:20:27.611Z,100554.03
2018-07-02T09:22:55.936Z,100553.23
2018-07-02T09:25:24.076Z,100555.41
2018-07-02T09:27:52.216Z,100540.38
2018-07-02T09:30:20.312Z,100548.52
2018-07-02T09:32:48.390Z,100541.72
2018-07-02T09:35:16.502Z,100542.54
2018-07-02T09:37:44.586Z,100543.91
2018-07-02T09:40:12.700Z,100542.25
2018-07-02T09:42:40.844Z,100535.95
2018-07-02T09:45:09.848Z,100529.95
2018-07-02T09:47:37.943Z,100533.47
2018-07-02T09:50:06.026Z,100538.89
2018-07-02T09:52:34.276Z,100529.56
2018-07-02T09:55:02.368Z,100529.81
2018-07-02T09:57:30.464Z,100531.12
2018-07-02T09:59:58.620Z,100536.59
2018-07-02T10:02:26.710Z,100531.70
2018-07-02T10:04:54.834Z,100533.33
2018-07-02T10:07:22.963Z,100531.41
2018-07-02T10:09:51.031Z,100523.99
2018-07-02T10:12:19.123Z,100528.92
2018-07-02T10:14:47.207Z,100524.58
2018-07-02T10:17:15.315Z,100529.63
2018-07-02T10:19:43.423Z,100533.74
2018-07-02T10:22:11.523Z,100528.80
2018-07-02T10:24:39.743Z,100537.00
2018-07-02T10:27:07.906Z,100524.22
2018-07-02T10:29:36.081Z,100520.06
2018-07-02T10:32:04.151Z,100529.98
2018-07-02T10:34:32.272Z,100533.55
2018-07-02T10:37:00.355Z,100531.53
2018-07-02T10:39:28.457Z,100530.70
2018-07-02T10:41:56.568Z,100533.48
2018-07-02T10:44:24.630Z,100536.70
2018-07-02T10:46:52.837Z,100534.52
2018-07-02T10:49:20.900Z,100537.16
2018-07-02T10:51:48.991Z,100529.05
2018-07-02T10:54:17.086Z,100526.83
2018-07-02T10:56:45.158Z,100528.52
2018-07-02T10:59:13.285Z,100524.92
2018-07-02T11:01:41.362Z,100531.11
2018-07-02T11:04:09.437Z,100528.07
2018-07-02T11:06:37.510Z,100530.18
2018-07-02T11:09:06.926Z,100529.20
2018-07-02T11:11:35.161Z,100526.34
2018-07-02T11:14:03.248Z,100526.52
2018-07-02T11:16:31.329Z,100526.09
2018-07-02T11:18:59.455Z,100522.89
2018-07-02T11:21:27.546Z,100525.04
2018-07-02T11:23:55.850Z,100528.08
2018-07-02T11:26:23.927Z,100518.45
2018-07-02T11:28:52.055Z,100514.61
2018-07-02T11:31:20.156Z,100510.58
2018-07-02T11:33:48.276Z,100501.84
2018-07-02T11:36:16.360Z,100499.11
2018-07-02T11:38:44.460Z,100502.54
2018-07-02T11:41:12.843Z,100499.25
2018-07-02T11:43:40.949Z,100500.09
2018-07-02T11:46:09.057Z,100493.78
2018-07-02T11:48:37.130Z,100496.41
2018-07-02T11:51:05.290Z,100489.73
2018-07-02T11:53:33.427Z,100487.74
2018-07-02T11:56:01.517Z,100495.14
2018-07-02T11:58:29.605Z,100499.00
2018-07-02T12:00:57.682Z,100494.42
2018-07-02T12:03:25.823Z,100484.05
2018-07-02T12:05:53.912Z,100488.68
2018-07-02T12:08:21.995Z,100486.07
2018-07-02T12:10:50.169Z,100478.08
2018-07-02T12:13:18.291Z,100479.86
2018-07-02T12:15:46.379Z,100478.55
2018-07-02T12:18:14.464Z,100477.86
2018-07-02T12:20:42.552Z,100474.79
2018-07-02T12:23:11.990Z,100478.33
2018-07-02T12:25:40.655Z,100476.89
2018-07-02T12:28:08.746Z,100477.47
2018-07-02T12:30:36.839Z,100475.17
2018-07-02T12:33:05.004Z,100480.55
2018-07-02T12:35:33.121Z,100477.14
2018-07-02T12:38:01.285Z,100472.05
2018-07-02T12:40:29.379Z,100470.30
2018-07-02T12:42:57.551Z,100466.81
2018-07-02T12:45:25.636Z,100467.02
2018-07-02T12:47:54.983Z,100464.77
2018-07-02T12:50:23.091Z,100476.50
2018-07-02T12:52:51.432Z,100474.09
2018-07-02T12:55:19.543Z,100473.05
2018-07-02T12:57:47.630Z,100465.16
2018-07-02T13:00:16.017Z,100459.58
2018-07-02T13:02:44.155Z,100461.20
2018-07-02T13:05:12.239Z,100461.47
2018-07-02T13:07:40.393Z,100460.71
2018-07-02T13:10:08.495Z,100449.45
2018-07-02T13:12:36.631Z,100454.94
2018-07-02T13:15:05.039Z,100453.36
2018-07-02T13:17:33.119Z,100446.38
2018-07-02T13:20:01.236Z,100443.64
2018-07-02T13:22:29.370Z,100447.25
2018-07-02T13:24:57.471Z,100452.58
2018-07-02T13:27:25.555Z,100444.96
2018-07-02T13:29:53.675Z,100443.55
2018-07-02T13:32:21.820Z,100442.11
2018-07-02T13:34:50.571Z,100444.75
2018-07-02T13:37:18.687Z,100441.05
2018-07-02T13:39:46.807Z,100439.47
2018-07-02T13:42:14.883Z,100443.55
2018-07-02T13:44:43.006Z,100443.59
2018-07-02T13:47:11.109Z,100439.09
2018-07-02T13:49:39.190Z,100434.39
2018-07-02T13:52:07.299Z,100428.22
2018-07-02T13:54:35.398Z,100417.02
2018-07-02T13:57:03.473Z,100423.06
2018-07-02T13:59:31.543Z,100426.45
2018-07-02T14:01:59.708Z,100414.00
2018-07-02T14:04:27.792Z,100407.30
2018-07-02T14:06:56.230Z,100405.73
2018-07-02T14:09:24.315Z,100411.62
2018-07-02T14:11:52.657Z,100401.26
2018-07-02T14:14:20.756Z,100408.98
2018-07-02T14:16:48.832Z,100402.63
2018-07-02T14:19:16.960Z,100402.20
2018-07-02T14:21:45.297Z,100404.55
2018-07-02T14:24:13.451Z,100406.55
2018-07-02T14:26:41.511Z,100410.39
2018-07-02T14:29:09.599Z,100414.17
2018-07-02T14:31:37.820Z,100407.41
2018-07-02T14:34:05.911Z,100405.97
2018-07-02T14:36:33.991Z,100394.37
2018-07-02T14:39:02.104Z,100398.84
2018-07-02T14:41:30.200Z,100391.94
2018-07-02T14:43:58.305Z,100391.42
2018-07-02T14:46:26.617Z,100380.38
2018-07-02T14:48:54.726Z,100382.25
2018-07-02T14:51:22.867Z,100379.59
2018-07-02T14:53:50.984Z,100370.31
2018-07-02T14:56:19.162Z,100364.45
2018-07-02T14:58:47.320Z,100370.75
2018-07-02T15:01:15.406Z,100370.30
2018-07-02T15:03:43.609Z,100374.42
2018-07-02T15:06:11.775Z,100373.05
2018-07-02T15:08:39.854Z,100367.42
2018-07-02T15:11:07.971Z,100371.36
2018-07-02T15:13:36.055Z,100364.95
2018-07-02T15:16:04.122Z,100361.08
2018-07-02T15:18:32.210Z,100370.52
2018-07-02T15:21:00.340Z,100367.71
2018-07-02T15:23:28.523Z,100370.88
2018-07-02T15:25:56.612Z,100376.89
2018-07-02T15:28:24.667Z,100368.64
2018-07-02T15:30:52.746Z,100374.38
2018-07-02T15:33:20.828Z,100372.95
2018-07-02T15:35:48.941Z,100370.30
2018-07-02T15:38:16.997Z,100374.35
2018-07-02T15:40:45.092Z,100379.77
2018-07-02T15:43:13.176Z,100374.73
2018-07-02T15:45:41.340Z,100362.21
2018-07-02T15:48:09.507Z,100364.01
2018-07-02T15:50:37.583Z,100366.84
2018-07-02T15:53:30.412Z,100368.16
2018-07-02T15:55:58.596Z,100371.34
2018-07-02T15:58:26.731Z,100366.65
2018-07-02T16:00:54.857Z,100360.22
2018-07-02T16:03:23.323Z,100350.80
2018-07-02T16:05:51.423Z,100356.53
2018-07-02T16:08:19.523Z,100351.22
2018-07-02T16:10:47.599Z,100354.79
2018-07-02T16:13:15.661Z,100354.91
2018-07-02T16:15:43.775Z,100355.29
2018-07-02T16:18:11.915Z,100364.34
2018-07-02T16:20:40.056Z,100357.06
2018-07-02T16:23:08.132Z,100352.05
2018-07-02T16:25:36.206Z,100353.58
2018-07-02T16:28:04.284Z,100354.63
2018-07-02T16:30:32.419Z,100363.80
2018-07-02T16:33:00.514Z,100358.34
2018-07-02T16:35:28.616Z,100355.36
2018-07-02T16:37:56.683Z,100361.54
2018-07-02T16:40:24.748Z,100354.80
2018-07-02T16:42:52.898Z,100358.34
2018-07-02T16:45:21.525Z,100356.58
2018-07-02T16:47:49.617Z,100367.03
2018-07-02T16:50:17.668Z,100365.97
2018-07-02T16:52:45.748Z,100370.53
2018-07-02T16:55:13.891Z,100370.79
2018-07-02T16:57:42.049Z,100362.28
2018-07-02T17:00:10.168Z,100359.50
2018-07-02T17:02:38.263Z,100349.31
2018-07-02T17:05:06.652Z,100348.92
2018-07-02T17:07:34.751Z,100355.10
2018-07-02T17:10:02.819Z,100360.30
2018-07-02T17:12:30.891Z,100369.36
2018-07-02T17:14:58.983Z,100363.34
2018-07-02T17:17:27.058Z,100370.98
2018-07-02T17:19:55.130Z,100363.88
2018-07-02T17:22:23.246Z,100360.67
2018-07-02T17:24:51.331Z,100347.65
2018-07-02T17:27:19.409Z,100350.14
2018-07-02T17:29:47.495Z,100350.67
2018-07-02T17:32:15.563Z,100355.70
2018-07-02T17:34:43.679Z,100349.61
2018-07-02T17:37:11.797Z,100347.03
2018-07-02T17:39:39.900Z,100345.02
2018-07-02T17:42:08.007Z,100344.00
2018-07-02T17:44:36.073Z,100350.25
2018-07-02T17:47:04.168Z,100352.21
2018-07-02T17:49:32.281Z,100347.89
2018-07-02T17:52:00.429Z,100349.64
2018-07-02T17:54:28.612Z,100355.14
2018-07-02T17:56:56.856Z,100358.70
2018-07-02T17:59:25.330Z,100366.59
2018-07-02T18:01:53.495Z,100363.01
2018-07-02T18:04:21.727Z,100354.02
2018-07-02T18:06:49.874Z,100356.27
2018-07-02T18:09:18.042Z,100362.69
2018-07-02T18:11:46.281Z,100351.66
2018-07-02T18:14:15.373Z,100364.59
2018-07-02T18:16:43.535Z,100355.63
2018-07-02T18:19:12.532Z,100356.75
2018-07-02T18:21:43.078Z,100358.78
2018-07-02T18:24:11.321Z,100357.12
2018-07-02T18:26:39.461Z,100357.84
2018-07-02T18:29:07.650Z,100361.37
2018-07-02T18:31:35.760Z,100357.05
2018-07-02T18:34:04.013Z,100364.32
2018-07-02T18:36:32.598Z,100367.95
2018-07-02T18:39:00.888Z,100365.87
2018-07-02T18:41:29.041Z,100363.92
2018-07-02T18:43:57.351Z,100369.33
2018-07-02T18:46:25.854Z,100371.27
2018-07-02T18:48:54.680Z,100372.41
2018-07-02T18:51:23.033Z,100378.22
2018-07-02T18:53:51.467Z,100379.81
2018-07-02T18:56:19.618Z,100375.46
2018-07-02T18:58:47.759Z,100375.52
2018-07-02T19:01:15.886Z,100385.84
2018-07-02T19:03:44.010Z,100379.83
2018-07-02T19:06:12.202Z,100381.45
2018-07-02T19:08:40.498Z,100386.47
2018-07-02T19:11:08.598Z,100393.84
2018-07-02T19:13:36.803Z,100399.13
2018-07-02T19:16:05.689Z,100399.23
2018-07-02T19:18:34.937Z,100405.57
2018-07-02T19:21:03.976Z,100399.14
2018-07-02T19:23:32.250Z,100402.84
2018-07-02T19:26:00.521Z,100405.67
2018-07-02T19:28:28.725Z,100411.83
2018-07-02T19:30:56.822Z,100409.20
2018-07-02T19:33:24.954Z,100413.97
2018-07-02T19:35:55.234Z,100417.42
2018-07-02T19:38:23.414Z,100423.39
2018-07-02T19:40:52.596Z,100424.30
2018-07-02T19:43:20.899Z,100423.68
2018-07-02T19:45:49.366Z,100430.37
2018-07-02T19:48:17.633Z,100440.02
2018-07-02T19:50:45.876Z,100439.61
2018-07-02T19:53:14.157Z,100452.28
2018-07-02T19:55:43.259Z,100452.16
2018-07-02T19:58:11.418Z,100461.73
2018-07-02T20:00:40.051Z,100456.90
2018-07-02T20:03:08.230Z,100468.97
2018-07-02T20:05:36.404Z,100464.37
2018-07-02T20:08:04.589Z,100469.67
2018-07-02T20:10:33.059Z,100466.34
2018-07-02T20:13:01.206Z,100468.34
2018-07-02T20:15:29.405Z,100473.85
2018-07-02T20:18:08.014Z,100475.58
2018-07-02T20:20:36.366Z,100484.92
2018-07-02T20:25:46.092Z,100481.97
2018-07-02T20:28:14.918Z,100480.94
2018-07-02T20:30:43.220Z,100480.41
2018-07-02T20:33:18.539Z,100475.80
2018-07-02T20:35:46.823Z,100481.88
2018-07-02T20:38:15.312Z,100495.23
2018-07-02T20:40:43.498Z,100496.09
2018-07-02T20:43:12.135Z,100498.87
2018-07-02T20:45:41.029Z,100505.98
2018-07-02T20:48:09.207Z,100500.27
2018-07-02T20:50:37.319Z,100512.86
2018-07-02T20:53:20.024Z,100516.39
2018-07-02T20:55:48.560Z,100516.41
2018-07-02T20:58:17.479Z,100522.97
2018-07-02T21:00:48.046Z,100521.34
2018-07-02T21:03:22.849Z,100523.27
2018-07-02T21:05:52.825Z,100524.06
2018-07-02T21:08:22.959Z,100528.13
2018-07-02T21:10:56.408Z,100531.14
2018-07-02T21:13:30.321Z,100537.14
2018-07-02T21:15:59.207Z,100534.96
2018-07-02T21:18:38.758Z,100536.34
2018-07-02T21:21:06.883Z,100530.59
2018-07-02T21:28:48.415Z,100537.12
2018-07-02T21:31:28.652Z,100537.66
2018-07-02T21:39:29.567Z,100563.16
2018-07-02T21:42:02.027Z,100555.78
2018-07-02T21:44:32.214Z,100561.78
2018-07-02T21:47:00.652Z,100560.65
2018-07-02T21:49:28.956Z,100570.13
2018-07-02T21:51:57.392Z,100571.49
2018-07-02T21:54:25.599Z,100573.92
2018-07-02T21:56:53.823Z,100576.09
2018-07-02T21:59:22.197Z,100573.34
2018-07-02T22:01:50.397Z,100577.42
2018-07-02T22:04:20.330Z,100574.41
2018-07-02T22:06:50.767Z,100578.63
2018-07-02T22:09:18.978Z,100578.45
2018-07-02T22:11:47.124Z,100579.48
2018-07-02T22:14:15.255Z,100579.93
2018-07-02T22:16:43.438Z,100576.09
2018-07-02T22:21:38.807Z,100580.70
2018-07-02T22:24:06.884Z,100577.45
2018-07-02T22:26:36.753Z,100581.22
2018-07-02T22:29:05.556Z,100582.80
2018-07-02T22:31:34.865Z,100579.59
2018-07-02T22:34:03.281Z,100576.80
2018-07-02T22:36:31.439Z,100576.16
2018-07-02T22:38:59.740Z,100577.78
2018-07-02T22:41:28.563Z,100580.95
2018-07-02T22:43:57.299Z,100575.25
2018-07-02T22:46:25.880Z,100572.23
2018-07-02T22:48:54.089Z,100573.83
2018-07-02T22:51:22.315Z,100580.61
2018-07-02T22:53:50.733Z,100580.34
2018-07-02T22:56:19.030Z,100577.86
2018-07-02T22:58:47.235Z,100574.69
2018-07-02T23:01:15.459Z,100574.95
2018-07-02T23:03:43.589Z,100578.77
2018-07-02T23:06:11.708Z,100581.95
2018-07-02T23:08:39.932Z,100575.95
2018-07-02T23:11:08.658Z,100576.75
2018-07-02T23:13:36.852Z,100581.32
2018-07-02T23:16:05.558Z,100588.58
2018-07-02T23:18:34.465Z,100591.16
2018-07-02T23:21:03.032Z,100595.64
2018-07-02T23:23:32.217Z,100590.69
2018-07-02T23:26:00.380Z,100591.03
2018-07-02T23:28:28.558Z,100586.32
2018-07-02T23:30:56.691Z,100588.96
2018-07-02T23:33:24.860Z,100583.52
2018-07-02T23:35:53.017Z,100587.22
2018-07-02T23:38:21.542Z,100592.50
2018-07-02T23:40:49.790Z,100599.39
2018-07-02T23:43:18.087Z,100595.56
2018-07-02T23:45:46.566Z,100600.30
2018-07-02T23:48:14.865Z,100594.13
2018-07-02T23:50:42.983Z,100600.08
2018-07-02T23:53:11.361Z,100590.81
2018-07-02T23:55:40.511Z,100597.94
2018-07-02T23:58:08.883Z,100595.16
